Time;durP1;ratioP1;P1;durP2;ratioP2;P2;SDS_P1;SDS_P2;PMS_P1;PMS_P2;Temp;Humidity;BMP_temperature;BMP_pressure;BME280_temperature;BME280_humidity;BME280_pressure;Samples;Min_cycle;Max_cycle;Signal;HPM_P1;HPM_P2
2022/11/16 00:02:19;;;;;;;10.95;5.20;;;;;;;7.28;64.81;91703.84;2070519;69;20271;-73
2022/11/16 00:04:45;;;;;;;8.10;4.55;;;;;;;7.54;63.95;91693.38;2067662;69;20545;-74
2022/11/16 00:07:10;;;;;;;12.05;5.35;;;;;;;7.48;64.83;91681.84;2070839;69;20166;-74
2022/11/16 00:09:36;;;;;;;10.50;4.65;;;;;;;7.67;63.21;91681.53;2070302;69;20160;-74
2022/11/16 00:12:05;;;;;;;15.40;3.88;;;;;;;7.73;63.76;91681.13;2070736;69;20583;-73
2022/11/16 00:14:33;;;;;;;6.95;3.50;;;;;;;7.68;63.99;91676.63;2070958;69;20191;-71
2022/11/16 00:17:00;;;;;;;5.38;3.22;;;;;;;7.70;61.94;91677.50;2070810;69;20152;-72
2022/11/16 00:19:26;;;;;;;9.48;3.38;;;;;;;7.93;60.74;91685.03;2070761;69;20180;-71
2022/11/16 00:21:53;;;;;;;8.18;3.75;;;;;;;7.89;61.95;91676.41;2071288;69;20175;-74
2022/11/16 00:24:20;;;;;;;7.07;3.65;;;;;;;7.87;61.83;91679.06;2071256;69;20164;-71
2022/11/16 00:26:46;;;;;;;8.63;4.05;;;;;;;7.76;62.48;91675.00;2071248;69;20158;-73
2022/11/16 00:29:19;;;;;;;8.27;3.58;;;;;;;7.80;62.52;91660.50;2068054;69;20152;-73
2022/11/16 00:31:45;;;;;;;7.45;3.70;;;;;;;7.92;62.17;91655.53;2071488;69;20149;-73
2022/11/16 00:34:11;;;;;;;7.22;3.50;;;;;;;7.83;62.44;91653.63;2068051;69;20679;-75
2022/11/16 00:36:37;;;;;;;8.30;3.78;;;;;;;7.33;64.33;91650.28;2071578;69;20133;-73
2022/11/16 00:39:04;;;;;;;7.68;4.30;;;;;;;7.60;63.78;91649.63;2068130;69;20576;-74
2022/11/16 00:41:29;;;;;;;6.80;3.80;;;;;;;7.70;63.13;91652.28;2068156;69;20159;-73
2022/11/16 00:43:58;;;;;;;5.22;3.47;;;;;;;7.73;62.51;91659.44;2067887;69;20156;-74
2022/11/16 00:46:24;;;;;;;6.13;4.05;;;;;;;7.78;61.98;91655.50;2068106;69;20144;-73
2022/11/16 00:48:49;;;;;;;8.77;3.90;;;;;;;7.84;62.12;91661.44;2071363;69;20215;-73
2022/11/16 00:51:15;;;;;;;7.40;3.95;;;;;;;7.92;62.50;91652.72;2068122;69;20290;-73
2022/11/16 00:53:42;;;;;;;10.15;4.05;;;;;;;7.89;62.26;91662.38;2071377;69;20515;-73
2022/11/16 00:56:07;;;;;;;9.15;4.18;;;;;;;7.60;63.36;91663.63;2065068;69;20518;-72
2022/11/16 00:58:39;;;;;;;7.67;4.40;;;;;;;7.64;63.12;91658.25;2070967;69;20256;-73
2022/11/16 01:01:08;;;;;;;5.53;3.90;;;;;;;7.69;63.04;91666.88;2070715;69;20168;-73
2022/11/16 01:03:35;;;;;;;5.75;4.00;;;;;;;7.67;64.35;91661.19;2067875;69;20151;-73
2022/11/16 01:06:03;;;;;;;12.82;3.58;;;;;;;7.70;63.52;91646.69;2067777;69;20164;-73
2022/11/16 01:08:33;;;;;;;6.68;3.70;;;;;;;7.73;63.32;91645.41;2067646;69;20163;-74
2022/11/16 01:12:07;;;;;;;7.68;4.55;;;;;;;7.58;64.14;91646.00;2071209;69;20168;-74
2022/11/16 01:13:48;;;;;;;9.00;4.13;;;;;;;7.67;63.63;91647.91;2067640;69;20196;-73
2022/11/16 01:16:19;;;;;;;10.75;4.43;;;;;;;7.70;63.63;91640.31;2071100;69;20198;-74
2022/11/16 01:18:52;;;;;;;8.35;4.40;;;;;;;7.59;63.58;91639.78;2071285;69;20157;-72
2022/11/16 01:21:19;;;;;;;8.65;3.85;;;;;;;7.68;63.32;91638.16;2067717;69;20617;-74
2022/11/16 01:23:45;;;;;;;6.82;3.78;;;;;;;7.73;63.19;91634.22;2071109;69;20132;-75
2022/11/16 01:26:11;;;;;;;8.43;4.32;;;;;;;7.74;63.71;91626.53;2071220;69;20144;-74
2022/11/16 01:28:38;;;;;;;6.13;3.60;;;;;;;7.69;64.06;91631.19;2067615;69;20529;-76
2022/11/16 01:31:05;;;;;;;8.63;4.43;;;;;;;7.78;63.61;91633.09;2067771;69;20148;-73
2022/11/16 01:33:34;;;;;;;8.48;3.65;;;;;;;7.77;63.93;91633.72;2067778;69;20155;-75
2022/11/16 01:36:00;;;;;;;8.63;3.67;;;;;;;7.67;64.62;91633.91;2067653;69;20172;-73
2022/11/16 01:38:26;;;;;;;6.85;3.80;;;;;;;7.75;63.93;91628.75;2066913;69;20144;-72
2022/11/16 01:40:52;;;;;;;6.65;3.97;;;;;;;7.76;63.40;91629.47;2067507;69;20188;-72
2022/11/16 01:43:24;;;;;;;9.52;3.83;;;;;;;7.76;64.87;91635.06;2067319;69;20133;-73
2022/11/16 01:45:52;;;;;;;6.78;4.13;;;;;;;7.84;64.04;91633.44;2067502;69;20148;-73
2022/11/16 01:48:29;;;;;;;10.18;4.00;;;;;;;7.85;63.87;91620.13;2067682;69;20240;-73
2022/11/16 01:50:56;;;;;;;7.18;3.58;;;;;;;7.98;63.08;91618.72;2067549;69;20163;-73
2022/11/16 01:53:23;;;;;;;8.02;3.70;;;;;;;7.96;62.70;91615.78;2067452;69;20144;-73
2022/11/16 01:55:52;;;;;;;6.30;3.30;;;;;;;7.94;62.04;91607.28;2067683;69;20575;-74
2022/11/16 01:58:32;;;;;;;10.15;3.47;;;;;;;8.12;61.68;91600.56;2067526;69;20168;-77
2022/11/16 02:01:11;;;;;;;6.63;3.45;;;;;;;8.30;60.65;91597.25;2067603;69;20636;-74
2022/11/16 02:03:43;;;;;;;7.63;3.63;;;;;;;8.32;59.15;91597.34;2068563;69;20184;-77
2022/11/16 02:06:24;;;;;;;6.95;4.28;;;;;;;7.78;62.98;91596.66;2069593;69;20732;-74
2022/11/16 02:09:55;;;;;;;6.65;3.78;;;;;;;8.07;62.55;91596.09;2068080;69;20171;-76
2022/11/16 02:13:00;;;;;;;6.93;3.83;;;;;;;8.13;62.31;91592.88;2065893;69;20632;-73
2022/11/16 02:15:50;;;;;;;6.97;4.10;;;;;;;8.10;61.58;91592.03;2070264;69;20174;-76
2022/11/16 02:18:34;;;;;;;7.75;3.78;;;;;;;8.08;61.65;91591.22;2070509;69;20183;-75
2022/11/16 02:21:20;;;;;;;6.90;3.80;;;;;;;8.13;61.64;91595.69;2069766;69;20351;-75
2022/11/16 02:24:18;;;;;;;7.00;3.90;;;;;;;8.25;61.60;91592.78;2072587;69;20585;-76
2022/11/16 02:27:08;;;;;;;6.20;3.70;;;;;;;8.32;61.15;91594.53;2067170;69;20709;-74
2022/11/16 02:29:41;;;;;;;7.47;3.70;;;;;;;8.12;61.84;91594.97;2067078;69;20522;-73
2022/11/16 02:32:27;;;;;;;8.02;3.90;;;;;;;8.29;60.97;91590.91;2067212;69;20152;-76
2022/11/16 02:35:13;;;;;;;7.10;4.10;;;;;;;8.34;61.38;91591.84;2068834;69;20144;-76
2022/11/16 02:37:44;;;;;;;7.43;3.78;;;;;;;8.30;60.87;91595.16;2067077;69;20191;-76
2022/11/16 02:40:14;;;;;;;8.15;4.40;;;;;;;8.36;60.79;91587.09;2067689;69;20152;-76
2022/11/16 02:42:50;;;;;;;10.00;4.75;;;;;;;8.43;60.90;91593.00;2067117;69;20567;-76
2022/11/16 02:45:25;;;;;;;6.18;3.92;;;;;;;8.36;60.74;91575.88;2067033;69;20240;-78
2022/11/16 02:47:54;;;;;;;7.80;3.83;;;;;;;8.40;61.05;91581.69;2067197;69;20270;-77
2022/11/16 02:50:22;;;;;;;7.20;3.75;;;;;;;8.49;60.98;91579.28;2067838;69;20208;-76
2022/11/16 02:52:48;;;;;;;6.57;4.05;;;;;;;8.50;60.56;91577.94;2067714;69;20258;-76
2022/11/16 02:55:14;;;;;;;8.70;4.25;;;;;;;8.36;61.38;91580.72;2067632;69;20228;-74
2022/11/16 02:57:57;;;;;;;6.45;4.10;;;;;;;8.39;60.89;91574.63;2067084;69;20539;-76
2022/11/16 03:00:51;;;;;;;6.78;4.35;;;;;;;8.49;61.58;91573.69;2066976;69;20492;-74
2022/11/16 03:03:56;;;;;;;8.48;4.25;;;;;;;8.52;61.94;91575.22;2067058;69;20156;-77
2022/11/16 03:06:32;;;;;;;4.82;3.22;;;;;;;8.49;63.30;91576.50;2067268;69;20237;-78
2022/11/16 03:09:07;;;;;;;4.60;3.00;;;;;;;8.57;62.41;91571.28;2066994;69;20234;-76
2022/11/16 03:14:26;;;;;;;6.10;3.33;;;;;;;8.49;64.06;91582.81;2066975;69;20196;-77
2022/11/16 03:16:56;;;;;;;7.45;3.28;;;;;;;8.48;65.72;91572.25;2066977;69;20180;-76
2022/11/16 03:19:36;;;;;;;5.85;2.88;;;;;;;8.64;65.06;91584.97;2067166;69;20214;-78
2022/11/16 03:22:28;;;;;;;7.28;2.95;;;;;;;8.55;65.43;91588.00;2067042;69;20180;-76
2022/11/16 03:24:54;;;;;;;5.13;3.50;;;;;;;8.41;65.95;91582.41;2066258;69;20188;-72
2022/11/16 03:27:20;;;;;;;6.25;3.63;;;;;;;8.19;66.13;91593.19;2067879;69;20137;-72
2022/11/16 03:30:02;;;;;;;7.07;3.90;;;;;;;8.29;66.48;91590.16;2066887;69;20642;-72
2022/11/16 03:32:35;;;;;;;8.07;3.60;;;;;;;8.37;65.81;91587.81;2067835;69;20144;-72
2022/11/16 03:35:16;;;;;;;7.38;4.00;;;;;;;8.37;66.89;91571.72;2067482;69;20141;-72
2022/11/16 03:37:44;;;;;;;6.13;3.50;;;;;;;8.39;66.82;91583.03;2067458;69;20615;-72
2022/11/16 03:40:12;;;;;;;6.03;3.70;;;;;;;8.46;66.19;91586.16;2067461;69;20210;-71
2022/11/16 03:42:40;;;;;;;9.00;4.10;;;;;;;8.36;66.76;91594.75;2067549;69;20141;-72
2022/11/16 03:45:08;;;;;;;5.35;3.90;;;;;;;8.36;68.08;91586.34;2067324;69;20632;-72
2022/11/16 03:47:34;;;;;;;5.95;3.70;;;;;;;8.37;67.85;91591.34;2067501;69;20518;-71
2022/11/16 03:49:59;;;;;;;6.82;3.55;;;;;;;8.44;68.71;91588.84;2067510;69;20236;-71
2022/11/16 03:52:25;;;;;;;8.10;4.57;;;;;;;8.33;69.76;91591.09;2068085;69;20172;-71
2022/11/16 03:54:51;;;;;;;10.35;5.25;;;;;;;8.42;69.41;91592.28;2068070;69;20165;-72
2022/11/16 03:57:17;;;;;;;8.88;4.85;;;;;;;8.45;69.12;91595.91;2067709;69;20159;-71
2022/11/16 03:59:47;;;;;;;11.75;4.75;;;;;;;8.38;68.75;91589.25;2067362;69;20531;-72
2022/11/16 04:02:12;;;;;;;13.88;4.15;;;;;;;8.26;69.02;91599.84;2067552;69;20133;-71
2022/11/16 04:24:14;;;;;;;8.48;4.57;;;;;;;8.10;71.80;91596.91;2066815;69;20701;-73
2022/11/16 04:29:29;;;;;;;9.68;4.50;;;;;;;8.29;70.61;91599.34;2064052;69;20157;-73
2022/11/16 04:40:10;;;;;;;7.47;5.40;;;;;;;8.42;69.70;91599.97;2064128;69;20560;-73
2022/11/16 04:42:36;;;;;;;9.63;5.38;;;;;;;8.40;70.79;91598.50;2064108;69;20603;-73
2022/11/16 04:47:52;;;;;;;8.55;5.85;;;;;;;8.31;70.38;91601.50;2064124;69;20176;-72
2022/11/16 04:50:20;;;;;;;8.13;5.65;;;;;;;8.34;70.94;91591.84;2064069;69;20160;-72
2022/11/16 04:52:47;;;;;;;9.57;5.50;;;;;;;8.31;71.67;91590.28;2064058;69;20181;-72
2022/11/16 04:55:14;;;;;;;12.48;6.10;;;;;;;8.23;71.41;91599.00;2064044;69;20573;-73
2022/11/16 04:57:40;;;;;;;9.07;6.20;;;;;;;8.22;72.22;91599.63;2064068;69;20253;-73
2022/11/16 05:00:07;;;;;;;9.23;5.82;;;;;;;8.28;71.39;91591.53;2063941;69;20145;-73
2022/11/16 05:02:35;;;;;;;8.75;5.95;;;;;;;8.30;71.83;91600.06;2064051;69;20141;-74
2022/11/16 05:05:00;;;;;;;10.50;5.93;;;;;;;8.34;71.48;91609.41;2064004;69;20173;-73
2022/11/16 05:07:28;;;;;;;75.97;27.02;;;;;;;8.31;71.43;91602.22;2064051;69;20156;-73
2022/11/16 05:10:05;;;;;;;73.95;24.75;;;;;;;8.30;71.75;91600.78;2064049;69;20272;-72
2022/11/16 05:12:32;;;;;;;58.78;20.95;;;;;;;8.37;70.92;91604.63;2064065;69;20250;-73
2022/11/16 05:15:01;;;;;;;51.95;17.92;;;;;;;8.33;72.14;91618.41;2064466;69;20659;-73
2022/11/16 05:17:30;;;;;;;34.40;14.55;;;;;;;8.26;72.28;91614.59;2064019;69;20570;-72
2022/11/16 05:22:56;;;;;;;78.28;27.52;;;;;;;8.26;72.99;91614.59;2064098;69;20157;-73
2022/11/16 05:25:24;;;;;;;97.72;35.47;;;;;;;8.35;71.76;91621.34;2066142;69;20569;-72
2022/11/16 05:27:50;;;;;;;97.00;34.47;;;;;;;8.33;72.07;91619.13;2067339;69;20139;-73
2022/11/16 05:30:16;;;;;;;95.85;35.10;;;;;;;8.35;73.55;91626.94;2067194;69;20152;-72
2022/11/16 05:32:42;;;;;;;77.45;29.23;;;;;;;8.34;73.05;91631.84;2067278;69;20152;-73
2022/11/16 05:35:08;;;;;;;49.55;21.08;;;;;;;8.38;73.40;91632.06;2067299;69;20583;-72
2022/11/16 05:37:35;;;;;;;62.92;26.23;;;;;;;8.22;74.22;91631.19;2067396;69;20144;-73
2022/11/16 05:40:01;;;;;;;29.83;14.05;;;;;;;8.20;73.07;91633.16;2067826;69;20168;-74
2022/11/16 05:42:39;;;;;;;21.60;11.80;;;;;;;8.14;74.86;91625.88;2067945;69;20172;-73
2022/11/16 05:45:06;;;;;;;22.92;11.60;;;;;;;8.20;74.16;91631.09;2064355;69;20155;-73
2022/11/16 05:47:32;;;;;;;24.17;12.50;;;;;;;8.25;74.26;91635.56;2064992;69;20193;-72
2022/11/16 05:49:58;;;;;;;23.13;11.70;;;;;;;8.30;73.86;91628.09;2067731;69;20251;-74
2022/11/16 05:52:27;;;;;;;28.02;13.32;;;;;;;8.35;73.59;91624.88;2064654;69;20144;-74
2022/11/16 05:54:56;;;;;;;23.95;12.75;;;;;;;8.38;73.65;91631.31;2067237;69;20160;-76
2022/11/16 05:57:21;;;;;;;20.45;11.32;;;;;;;8.33;74.12;91624.03;2067316;69;20144;-73
2022/11/16 05:59:47;;;;;;;13.18;7.57;;;;;;;8.28;74.05;91634.31;2067158;69;20502;-73
2022/11/16 06:02:13;;;;;;;14.52;7.63;;;;;;;8.26;74.13;91628.59;2067294;69;20144;-72
2022/11/16 06:04:39;;;;;;;9.88;6.47;;;;;;;8.40;73.08;91634.97;2067806;69;20172;-73
2022/11/16 06:07:06;;;;;;;9.18;6.32;;;;;;;8.44;72.96;91633.72;2067384;69;20180;-72
2022/11/16 06:09:34;;;;;;;10.57;5.68;;;;;;;8.44;74.63;91626.03;2067279;69;20602;-72
2022/11/16 06:12:10;;;;;;;9.48;5.70;;;;;;;8.40;74.42;91637.78;2067343;69;20551;-73
2022/11/16 06:14:36;;;;;;;8.75;4.53;;;;;;;8.40;74.03;91632.16;2067162;69;20144;-73
2022/11/16 06:17:03;;;;;;;6.32;3.92;;;;;;;8.12;76.55;91639.81;2067195;69;20156;-74
2022/11/16 06:19:29;;;;;;;7.15;3.83;;;;;;;8.27;75.50;91640.53;2067781;69;20164;-75
2022/11/16 06:21:56;;;;;;;7.07;4.03;;;;;;;8.34;74.98;91636.72;2067190;69;20235;-73
2022/11/16 06:24:23;;;;;;;7.32;4.63;;;;;;;8.38;75.25;91639.72;2067101;69;20157;-75
2022/11/16 06:26:48;;;;;;;8.07;4.30;;;;;;;8.40;74.43;91643.38;2067884;69;20203;-73
2022/11/16 06:29:14;;;;;;;7.95;4.38;;;;;;;8.26;76.41;91633.50;2067220;69;20344;-74
2022/11/16 06:31:40;;;;;;;7.20;4.10;;;;;;;8.27;75.21;91629.31;2067226;69;20574;-73
2022/11/16 06:34:05;;;;;;;5.45;3.88;;;;;;;8.39;75.04;91627.91;2067230;69;20212;-73
2022/11/16 06:36:32;;;;;;;6.68;3.38;;;;;;;8.44;74.06;91628.13;2067164;69;20222;-76
2022/11/16 06:38:59;;;;;;;6.53;3.90;;;;;;;8.36;74.68;91622.78;2067204;69;20144;-73
2022/11/16 06:41:27;;;;;;;6.57;3.70;;;;;;;8.36;75.51;91620.72;2067283;69;20583;-74
2022/11/16 06:43:52;;;;;;;5.75;3.70;;;;;;;8.38;75.56;91623.66;2067110;69;20160;-72
2022/11/16 06:46:23;;;;;;;6.47;3.95;;;;;;;8.29;75.11;91618.97;2067266;69;20199;-72
2022/11/16 06:48:49;;;;;;;8.25;4.22;;;;;;;8.33;74.52;91621.94;2067071;69;20137;-73
2022/11/16 06:51:16;;;;;;;8.90;4.50;;;;;;;8.40;73.98;91637.78;2067269;69;20176;-73
2022/11/16 06:53:41;;;;;;;7.35;4.57;;;;;;;8.20;75.21;91635.97;2067853;69;20148;-74
2022/11/16 06:56:10;;;;;;;6.40;4.13;;;;;;;8.41;74.92;91641.31;2067195;69;20141;-76
2022/11/16 06:58:41;;;;;;;5.43;3.75;;;;;;;8.47;75.47;91644.41;2067087;69;20643;-75
2022/11/16 07:01:08;;;;;;;5.43;3.95;;;;;;;8.48;75.40;91647.97;2067354;69;20159;-75
2022/11/16 07:03:37;;;;;;;6.75;4.78;;;;;;;8.36;75.15;91657.19;2069898;69;20152;-76
2022/11/16 07:06:09;;;;;;;6.20;3.70;;;;;;;8.58;74.63;91654.09;2069832;69;20160;-74
2022/11/16 07:08:37;;;;;;;6.00;3.50;;;;;;;8.62;74.17;91640.28;2068955;69;20160;-76
2022/11/16 07:11:04;;;;;;;7.63;3.45;;;;;;;8.66;75.23;91643.28;2067770;69;20145;-73
2022/11/16 07:13:34;;;;;;;5.13;3.08;;;;;;;8.57;76.32;91644.94;2067598;69;20140;-76
2022/11/16 07:16:02;;;;;;;5.88;3.55;;;;;;;8.62;76.29;91638.19;2067824;69;20532;-77
2022/11/16 07:18:27;;;;;;;5.63;3.35;;;;;;;8.62;76.42;91635.38;2067776;69;20172;-75
2022/11/16 07:20:53;;;;;;;5.53;3.25;;;;;;;8.64;75.68;91629.13;2067801;69;20168;-73
2022/11/16 07:23:19;;;;;;;5.07;3.40;;;;;;;8.77;74.89;91641.72;2067888;69;20144;-72
2022/11/16 07:25:46;;;;;;;4.45;3.13;;;;;;;8.65;75.72;91636.91;2068222;69;20165;-77
2022/11/16 07:28:12;;;;;;;9.07;5.47;;;;;;;8.65;75.89;91645.34;2067807;69;20238;-76
2022/11/16 07:30:39;;;;;;;14.48;9.27;;;;;;;8.60;76.36;91651.38;2067694;69;20526;-74
2022/11/16 07:33:08;;;;;;;12.00;7.03;;;;;;;8.60;74.99;91640.16;2067721;69;20182;-73
2022/11/16 07:35:52;;;;;;;13.23;7.90;;;;;;;8.38;76.86;91650.94;2068209;69;20167;-73
2022/11/16 07:38:18;;;;;;;11.25;6.53;;;;;;;8.42;76.62;91639.22;2068260;69;20141;-73
2022/11/16 07:40:45;;;;;;;10.25;6.18;;;;;;;8.47;77.48;91633.19;2067630;69;20176;-76
2022/11/16 07:43:14;;;;;;;12.10;6.50;;;;;;;8.64;76.56;91626.34;2067511;69;20176;-73
2022/11/16 07:46:02;;;;;;;10.32;6.00;;;;;;;8.60;77.14;91612.09;2067573;69;20188;-73
2022/11/16 07:48:28;;;;;;;10.38;4.97;;;;;;;8.77;76.29;91594.72;2068197;69;20148;-75
2022/11/16 07:51:15;;;;;;;7.05;4.90;;;;;;;8.96;75.32;91590.00;2068346;69;20143;-74
2022/11/16 07:53:46;;;;;;;10.77;4.65;;;;;;;8.84;76.05;91595.75;2067635;69;20247;-75
2022/11/16 07:56:12;;;;;;;6.45;4.18;;;;;;;8.88;75.54;91585.44;2067680;69;20146;-73
2022/11/16 07:58:39;;;;;;;5.63;4.07;;;;;;;9.00;75.07;91576.91;2067473;69;20179;-72
2022/11/16 08:01:12;;;;;;;6.80;3.60;;;;;;;8.88;74.55;91581.91;2067577;69;20596;-73
2022/11/16 08:03:39;;;;;;;9.25;4.80;;;;;;;8.75;74.47;91577.06;2067690;69;20488;-73
2022/11/16 08:06:15;;;;;;;13.10;6.35;;;;;;;8.88;74.84;91579.81;2067549;69;20243;-72
2022/11/16 08:08:42;;;;;;;5.57;3.03;;;;;;;9.08;73.11;91568.16;2067565;69;20252;-72
2022/11/16 08:11:10;;;;;;;5.72;3.65;;;;;;;8.93;75.04;91569.53;2067560;69;20141;-73
2022/11/16 08:13:37;;;;;;;6.45;3.40;;;;;;;9.11;74.12;91566.88;2067463;69;20141;-74
2022/11/16 08:16:15;;;;;;;6.07;3.75;;;;;;;9.06;74.86;91562.44;2068065;69;20125;-73
2022/11/16 08:18:42;;;;;;;8.73;5.78;;;;;;;8.74;76.66;91578.41;2067542;69;20465;-75
2022/11/16 08:21:12;;;;;;;9.75;5.80;;;;;;;8.46;79.42;91583.34;2068130;69;20154;-73
2022/11/16 08:23:43;;;;;;;8.02;5.00;;;;;;;8.86;78.35;91590.97;2067478;69;20548;-75
2022/11/16 08:26:14;;;;;;;10.75;5.45;;;;;;;9.08;76.89;91587.81;2067310;69;20188;-75
2022/11/16 08:28:44;;;;;;;11.13;6.55;;;;;;;9.15;76.48;91598.69;2067303;69;20141;-75
2022/11/16 08:31:16;;;;;;;13.10;7.13;;;;;;;8.82;77.65;91596.38;2067459;69;20139;-73
2022/11/16 08:33:44;;;;;;;12.35;6.63;;;;;;;8.70;77.84;91601.38;2067516;69;20156;-75
2022/11/16 08:36:16;;;;;;;11.15;6.40;;;;;;;8.77;78.15;91605.22;2067405;69;20179;-73
2022/11/16 08:38:47;;;;;;;11.55;7.15;;;;;;;8.96;77.28;91610.38;2067457;69;20137;-74
2022/11/16 08:41:13;;;;;;;12.90;7.10;;;;;;;8.85;78.17;91609.16;2067548;69;20510;-74
2022/11/16 08:43:39;;;;;;;9.90;6.50;;;;;;;9.20;76.92;91610.84;2067287;69;20144;-74
2022/11/16 08:46:08;;;;;;;10.25;6.32;;;;;;;8.97;76.82;91600.59;2067410;69;20152;-74
2022/11/16 08:48:34;;;;;;;6.50;5.13;;;;;;;9.13;76.03;91578.94;2067453;69;20145;-73
2022/11/16 08:51:02;;;;;;;9.57;5.88;;;;;;;9.51;74.81;91601.78;2067493;69;20163;-73
2022/11/16 08:53:29;;;;;;;8.45;5.82;;;;;;;9.59;75.29;91595.81;2067516;69;20226;-74
2022/11/16 08:56:02;;;;;;;10.10;5.80;;;;;;;9.62;75.73;91592.47;2067428;69;20192;-73
2022/11/16 08:58:27;;;;;;;8.93;5.55;;;;;;;9.66;76.46;91606.69;2067401;69;20164;-72
2022/11/16 09:00:53;;;;;;;8.80;4.78;;;;;;;9.68;76.00;91611.69;2068840;69;20144;-74
2022/11/16 09:03:19;;;;;;;13.10;7.55;;;;;;;9.45;75.98;91612.00;2067638;69;20621;-74
2022/11/16 09:05:45;;;;;;;13.52;9.18;;;;;;;9.65;75.62;91615.75;2068008;69;20144;-76
2022/11/16 09:08:11;;;;;;;17.85;10.95;;;;;;;9.45;76.38;91620.44;2068084;69;20314;-76
2022/11/16 09:10:37;;;;;;;13.52;8.93;;;;;;;9.05;78.65;91631.88;2068264;69;20129;-76
2022/11/16 09:13:04;;;;;;;13.02;8.30;;;;;;;9.48;77.85;91636.75;2068174;69;20144;-75
2022/11/16 09:15:30;;;;;;;11.55;7.47;;;;;;;9.66;76.60;91640.41;2067430;69;20140;-75
2022/11/16 09:17:57;;;;;;;11.60;7.00;;;;;;;9.75;74.82;91635.91;2067526;69;20261;-75
2022/11/16 09:20:25;;;;;;;11.32;6.72;;;;;;;9.72;74.87;91633.66;2067601;69;20144;-75
2022/11/16 09:22:50;;;;;;;10.80;6.88;;;;;;;9.49;75.24;91640.28;2068190;69;20182;-73
2022/11/16 09:25:17;;;;;;;12.38;7.18;;;;;;;9.74;74.62;91633.72;2066039;69;20164;-74
2022/11/16 09:27:43;;;;;;;13.48;6.47;;;;;;;9.89;74.00;91635.81;2061432;69;20148;-74
2022/11/16 09:30:10;;;;;;;16.08;6.85;;;;;;;9.98;74.26;91640.47;2064641;69;20141;-76
2022/11/16 09:32:36;;;;;;;9.55;6.57;;;;;;;10.03;74.37;91639.28;2064650;69;20149;-74
2022/11/16 09:35:01;;;;;;;11.30;6.97;;;;;;;9.99;75.14;91636.31;2064791;69;20145;-78
2022/11/16 09:37:27;;;;;;;12.95;6.72;;;;;;;10.19;73.54;91636.50;2064772;69;20145;-78
2022/11/16 09:39:57;;;;;;;9.75;6.72;;;;;;;10.33;73.89;91636.44;2064770;69;20232;-77
2022/11/16 09:42:34;;;;;;;10.68;6.30;;;;;;;10.38;73.16;91633.16;2064696;69;20141;-77
2022/11/16 09:45:05;;;;;;;9.35;6.13;;;;;;;10.50;72.75;91640.69;2064606;69;20152;-80
2022/11/16 09:47:47;;;;;;;9.27;5.60;;;;;;;10.50;73.42;91635.78;2064643;69;20168;-76
2022/11/16 09:50:38;;;;;;;11.48;6.35;;;;;;;10.45;73.32;91639.78;2064663;69;20199;-78
2022/11/16 09:53:30;;;;;;;9.93;6.78;;;;;;;10.10;74.43;91641.03;2064620;69;20153;-77
2022/11/16 09:56:03;;;;;;;10.65;6.55;;;;;;;10.11;74.42;91633.31;2064066;69;20590;-82
2022/11/16 09:58:39;;;;;;;11.85;6.70;;;;;;;9.86;75.15;91632.22;2064467;69;20236;-78
2022/11/16 10:01:36;;;;;;;10.65;7.00;;;;;;;10.02;75.29;91628.69;2064106;69;20129;-80
2022/11/16 10:04:35;;;;;;;11.52;8.18;;;;;;;9.88;75.45;91629.47;2064567;69;20310;-78
2022/11/16 10:07:10;;;;;;;12.65;8.27;;;;;;;9.98;75.46;91626.41;2063978;69;20175;-79
2022/11/16 10:09:36;;;;;;;13.02;7.60;;;;;;;10.05;74.94;91630.97;2064586;69;20137;-79
2022/11/16 10:12:05;;;;;;;15.85;7.97;;;;;;;10.31;73.58;91625.81;2064671;69;20144;-77
2022/11/16 10:14:37;;;;;;;14.25;7.45;;;;;;;10.60;73.49;91624.97;2064555;69;20136;-78
2022/11/16 10:17:17;;;;;;;14.98;8.10;;;;;;;10.71;72.78;91620.50;2064033;69;20153;-78
2022/11/16 10:19:53;;;;;;;14.93;8.60;;;;;;;10.82;71.99;91622.41;2064561;69;20629;-78
2022/11/16 10:22:32;;;;;;;13.80;8.10;;;;;;;10.72;71.52;91624.03;2064558;69;20220;-78
2022/11/16 10:25:22;;;;;;;14.02;7.80;;;;;;;10.74;72.55;91613.59;2064472;69;20157;-78
2022/11/16 10:28:03;;;;;;;13.82;7.95;;;;;;;10.66;72.49;91619.59;2064725;69;20159;-78
2022/11/16 10:30:34;;;;;;;13.25;8.40;;;;;;;10.47;72.95;91611.75;2064534;69;20219;-78
2022/11/16 10:33:17;;;;;;;12.20;7.53;;;;;;;10.60;72.50;91602.47;2064496;69;20496;-77
2022/11/16 10:35:54;;;;;;;10.55;8.10;;;;;;;10.76;72.26;91599.59;2066271;69;20183;-76
2022/11/16 10:38:26;;;;;;;13.32;8.88;;;;;;;10.68;71.47;91602.09;2065449;69;20215;-78
2022/11/16 10:40:56;;;;;;;10.80;7.93;;;;;;;10.37;72.59;91591.59;2064750;69;20203;-78
2022/11/16 10:43:27;;;;;;;12.25;6.57;;;;;;;10.08;74.15;91589.59;2064988;69;20153;-78
2022/11/16 10:45:59;;;;;;;9.93;6.15;;;;;;;9.97;74.67;91587.69;2065154;69;20514;-77
2022/11/16 10:48:46;;;;;;;9.80;6.28;;;;;;;10.30;73.61;91592.69;2065097;69;20327;-77
2022/11/16 10:51:12;;;;;;;9.15;6.53;;;;;;;10.61;72.51;91580.66;2065091;69;20236;-78
2022/11/16 10:53:40;;;;;;;11.13;6.10;;;;;;;10.75;72.13;91586.91;2065014;69;20519;-78
2022/11/16 10:56:20;;;;;;;11.15;6.47;;;;;;;10.79;71.24;91592.69;2065147;69;20157;-78
2022/11/16 10:58:54;;;;;;;10.80;7.25;;;;;;;10.73;71.43;91598.09;2064994;69;20622;-78
2022/11/16 11:01:52;;;;;;;13.02;8.15;;;;;;;10.69;72.34;91598.63;2064997;69;20157;-78
2022/11/16 11:04:24;;;;;;;15.57;7.72;;;;;;;10.77;72.83;91583.47;2064993;69;20173;-74
2022/11/16 11:06:51;;;;;;;15.02;7.45;;;;;;;10.82;72.40;91585.06;2065132;69;20168;-73
2022/11/16 11:09:32;;;;;;;12.73;6.95;;;;;;;10.87;70.74;91583.88;2064940;69;20228;-75
2022/11/16 11:15:10;;;;;;;13.55;6.75;;;;;;;10.71;70.77;91581.09;2064336;69;20219;-75
2022/11/16 11:17:41;;;;;;;10.27;5.28;;;;;;;10.32;72.91;91578.72;2061117;69;20176;-76
2022/11/16 11:20:13;;;;;;;7.93;5.10;;;;;;;10.57;72.75;91572.06;2061000;69;20188;-76
2022/11/16 11:22:56;;;;;;;6.30;4.53;;;;;;;10.37;73.49;91567.00;2061484;69;20153;-76
2022/11/16 11:25:29;;;;;;;8.47;5.53;;;;;;;10.37;73.40;91572.63;2065761;69;20191;-75
2022/11/16 11:28:06;;;;;;;;;;;;;;;10.31;73.66;91566.75;2072095;69;20152;-75
2022/11/16 11:30:34;;;;;;;18.75;5.40;;;;;;;10.53;72.61;91569.78;2072005;69;20482;-78
2022/11/16 11:32:59;;;;;;;13.70;8.48;;;;;;;10.44;72.92;91565.16;2068566;69;20150;-77
2022/11/16 11:35:31;;;;;;;13.52;9.25;;;;;;;10.60;72.57;91573.59;2068712;69;20176;-77
2022/11/16 11:38:01;;;;;;;18.15;9.63;;;;;;;10.34;74.14;91576.00;2065108;69;20242;-76
2022/11/16 11:40:29;;;;;;;12.38;8.65;;;;;;;10.31;74.62;91568.81;2068322;69;20168;-77
2022/11/16 11:43:20;;;;;;;12.30;8.30;;;;;;;10.33;74.71;91571.75;2064962;69;20141;-78
2022/11/16 11:45:53;;;;;;;12.25;8.02;;;;;;;10.45;74.16;91569.47;2065275;69;20567;-78
2022/11/16 11:48:46;;;;;;;12.73;7.28;;;;;;;10.61;72.99;91566.59;2068257;69;20136;-78
2022/11/16 11:51:26;;;;;;;12.55;7.57;;;;;;;10.72;73.12;91565.69;2068146;69;20671;-78
2022/11/16 11:53:55;;;;;;;11.52;7.72;;;;;;;10.86;72.24;91562.72;2067819;69;20218;-77
2022/11/16 11:56:21;;;;;;;14.25;8.18;;;;;;;10.85;72.60;91567.63;2068398;69;20152;-81
2022/11/16 11:58:48;;;;;;;12.73;9.57;;;;;;;10.61;73.07;91566.59;2068224;69;20507;-82
2022/11/16 12:01:31;;;;;;;14.82;10.80;;;;;;;10.54;73.24;91565.63;2068291;69;20601;-77
2022/11/16 12:04:07;;;;;;;21.52;12.80;;;;;;;10.38;74.32;91571.28;2068285;69;20137;-78
2022/11/16 12:06:55;;;;;;;14.57;9.90;;;;;;;10.69;72.69;91570.47;2068229;69;20147;-75
2022/11/16 12:09:39;;;;;;;16.23;10.63;;;;;;;10.50;73.10;91576.72;2066102;69;20202;-77
2022/11/16 12:12:38;;;;;;;11.50;7.97;;;;;;;10.52;72.09;91573.25;2073131;69;20645;-80
2022/11/16 12:15:17;;;;;;;11.60;8.50;;;;;;;10.54;73.45;91576.88;2068144;69;20152;-79
2022/11/16 12:18:05;;;;;;;12.35;8.30;;;;;;;10.51;73.32;91571.81;2065041;69;20480;-79
2022/11/16 12:20:48;;;;;;;16.23;10.20;;;;;;;10.54;72.85;91567.72;2068149;69;20135;-79
2022/11/16 12:23:14;;;;;;;13.20;9.50;;;;;;;10.61;72.39;91564.50;2068074;69;20125;-79
2022/11/16 12:26:01;;;;;;;13.10;9.23;;;;;;;10.63;73.04;91564.59;2068166;69;20164;-78
2022/11/16 12:28:59;;;;;;;13.55;8.68;;;;;;;10.55;74.50;91564.25;2068065;69;20152;-79
2022/11/16 12:31:40;;;;;;;13.07;8.93;;;;;;;10.58;73.73;91562.25;2062199;69;20204;-78
2022/11/16 12:34:27;;;;;;;15.02;9.07;;;;;;;10.54;74.83;91562.09;2068139;69;20214;-80
2022/11/16 12:37:20;;;;;;;18.38;10.52;;;;;;;10.47;75.31;91549.84;2068174;69;20629;-79
2022/11/16 12:40:13;;;;;;;14.70;10.82;;;;;;;10.59;75.44;91564.44;2068274;69;20566;-79
2022/11/16 12:42:54;;;;;;;14.60;10.13;;;;;;;10.60;74.96;91567.97;2068217;69;20507;-79